Time;durP1;ratioP1;P1;durP2;ratioP2;P2;SDS_P1;SDS_P2;PMS_P1;PMS_P2;Temp;Humidity;BMP_temperature;BMP_pressure;BME280_temperature;BME280_humidity;BME280_pressure;Samples;Min_cycle;Max_cycle;Signal;HPM_P1;HPM_P2
2022/12/15 00:39:27;;;;;;;54.80;27.92;;;-2.20;99.90;;;;;;5073961;28;20067;-73
2022/12/15 00:41:52;;;;;;;56.83;28.88;;;-2.20;99.90;;;;;;5071879;28;20051;-73
2022/12/15 00:44:19;;;;;;;55.83;28.55;;;-2.10;99.90;;;;;;5073753;28;20020;-73
2022/12/15 00:46:54;;;;;;;60.15;30.30;;;-2.00;99.90;;;;;;5072460;28;20428;-73
2022/12/15 01:22:36;;;;;;;62.60;30.30;;;-2.00;99.90;;;;;;5073095;28;20040;-73
2022/12/15 01:25:03;;;;;;;56.78;28.73;;;-2.40;99.90;;;;;;5071810;28;20032;-73
2022/12/15 01:27:29;;;;;;;57.08;29.02;;;-2.90;99.90;;;;;;5072963;28;20426;-74
2022/12/15 01:29:54;;;;;;;55.58;26.73;;;-3.10;99.90;;;;;;5071880;28;20104;-73
2022/12/15 01:32:20;;;;;;;60.25;30.83;;;-3.20;99.90;;;;;;5073076;28;20027;-74
2022/12/15 01:34:47;;;;;;;67.32;31.50;;;-3.20;99.90;;;;;;5072765;28;20050;-73
2022/12/15 01:37:12;;;;;;;68.25;31.13;;;-3.30;99.90;;;;;;5071378;28;20082;-74
2022/12/15 01:42:23;;;;;;;61.90;31.98;;;-3.30;99.90;;;;;;5073424;28;20028;-73
2022/12/15 01:44:51;;;;;;;59.28;30.40;;;-2.90;99.90;;;;;;5073159;28;20036;-74
2022/12/15 01:47:18;;;;;;;66.30;33.35;;;-3.00;99.90;;;;;;5054934;28;20381;-73
2022/12/15 01:49:46;;;;;;;62.08;32.17;;;-3.10;99.90;;;;;;5071633;28;20385;-74
2022/12/15 01:52:14;;;;;;;65.50;31.35;;;-2.80;99.90;;;;;;5071881;28;20028;-73
2022/12/15 01:54:52;;;;;;;58.75;31.45;;;-2.70;99.90;;;;;;5079708;28;20469;-73
2022/12/15 01:57:25;;;;;;;62.33;31.25;;;-2.90;99.90;;;;;;5072558;28;20041;-74
2022/12/15 01:59:59;;;;;;;67.00;33.03;;;-3.00;99.90;;;;;;5071663;28;20074;-74
2022/12/15 02:02:27;;;;;;;54.33;30.33;;;-2.90;99.90;;;;;;5072143;28;20033;-74
2022/12/15 02:04:56;;;;;;;68.60;33.38;;;-2.80;99.90;;;;;;5072853;28;20028;-74
2022/12/15 02:07:22;;;;;;;65.97;34.72;;;-2.60;99.90;;;;;;5072335;28;20123;-74
2022/12/15 02:09:52;;;;;;;64.80;32.28;;;-2.30;99.90;;;;;;5072488;28;20032;-73
2022/12/15 02:12:34;;;;;;;68.75;33.90;;;-2.20;99.90;;;;;;5071434;28;20043;-73
2022/12/15 02:15:22;;;;;;;69.35;34.45;;;-2.80;99.90;;;;;;5072416;28;20029;-73
2022/12/15 02:18:13;;;;;;;66.45;33.90;;;-3.00;99.90;;;;;;5071159;28;20128;-73
2022/12/15 02:20:51;;;;;;;64.22;34.67;;;-3.10;99.90;;;;;;5072620;28;20035;-73
2022/12/15 02:23:34;;;;;;;64.80;35.75;;;-3.20;99.90;;;;;;5072040;28;20020;-73
2022/12/15 02:26:19;;;;;;;64.55;34.58;;;-2.80;99.90;;;;;;5072465;28;20063;-73
2022/12/15 02:29:16;;;;;;;68.07;36.25;;;-2.90;99.90;;;;;;5072545;28;20025;-74
2022/12/15 02:32:02;;;;;;;69.68;36.65;;;-2.70;99.90;;;;;;5072267;28;20021;-73
2022/12/15 02:34:42;;;;;;;67.18;35.75;;;-2.80;99.90;;;;;;5072642;28;20043;-73
2022/12/15 02:37:31;;;;;;;70.95;33.42;;;-2.80;99.90;;;;;;5055004;28;20041;-73
2022/12/15 02:39:57;;;;;;;70.47;35.33;;;-2.80;99.90;;;;;;5069433;28;20021;-73
2022/12/15 02:42:25;;;;;;;68.22;36.72;;;-2.90;99.90;;;;;;5072480;28;20085;-73
2022/12/15 02:45:12;;;;;;;67.07;35.40;;;-3.10;99.90;;;;;;5072470;28;20029;-73
2022/12/15 02:48:00;;;;;;;69.13;36.03;;;-2.90;99.90;;;;;;5071441;28;20143;-73
2022/12/15 02:51:14;;;;;;;67.05;34.42;;;-2.80;99.90;;;;;;5072274;28;20078;-73
2022/12/15 02:54:10;;;;;;;64.93;34.92;;;-2.80;99.90;;;;;;5014983;28;20038;-73
2022/12/15 02:56:52;;;;;;;63.95;34.40;;;-2.80;99.90;;;;;;5066186;28;20048;-73
2022/12/15 02:59:32;;;;;;;;;;;-3.20;99.90;;;;;;5073199;28;20484;-73
2022/12/15 03:02:02;;;;;;;69.78;35.13;;;-3.20;99.90;;;;;;5072185;28;20272;-73
2022/12/15 03:04:32;;;;;;;71.60;33.53;;;-3.00;99.90;;;;;;5055943;28;20484;-73
2022/12/15 03:07:03;;;;;;;68.05;35.75;;;-2.80;99.90;;;;;;5075408;28;20052;-74
2022/12/15 03:09:30;;;;;;;62.15;34.03;;;-2.60;99.90;;;;;;5074342;28;20020;-73
2022/12/15 03:11:56;;;;;;;71.15;35.00;;;-2.70;99.90;;;;;;5075725;28;20032;-73
2022/12/15 03:14:24;;;;;;;66.57;33.35;;;-2.70;99.90;;;;;;5075347;28;20082;-74
2022/12/15 03:16:50;;;;;;;56.08;32.97;;;-2.80;99.90;;;;;;5074367;28;20062;-74
2022/12/15 03:19:16;;;;;;;61.55;32.33;;;-2.60;99.90;;;;;;5074052;28;20028;-74
2022/12/15 03:21:42;;;;;;;64.18;31.80;;;-2.40;99.90;;;;;;5075419;28;20357;-73
2022/12/15 03:24:08;;;;;;;71.03;34.42;;;-2.40;99.90;;;;;;5075254;28;20448;-74
2022/12/15 03:26:34;;;;;;;66.13;34.85;;;-2.40;99.90;;;;;;5075506;28;20048;-73
2022/12/15 03:29:00;;;;;;;57.40;33.33;;;-2.10;99.90;;;;;;5075383;28;20036;-73
2022/12/15 03:31:26;;;;;;;66.07;34.88;;;-2.30;99.90;;;;;;5075381;28;20032;-73
2022/12/15 03:33:51;;;;;;;61.92;33.80;;;-2.50;99.90;;;;;;5075305;28;20027;-73
2022/12/15 03:36:17;;;;;;;56.30;30.35;;;-2.40;99.90;;;;;;5074494;28;20036;-73
2022/12/15 03:38:43;;;;;;;66.07;32.58;;;-2.40;99.90;;;;;;5074896;28;20056;-73
2022/12/15 03:41:08;;;;;;;62.50;31.33;;;-2.50;99.90;;;;;;5075366;28;20103;-73
2022/12/15 03:43:34;;;;;;;66.13;32.42;;;-2.60;99.90;;;;;;5074944;28;20027;-73
2022/12/15 03:46:00;;;;;;;64.00;32.63;;;-2.60;99.90;;;;;;5073829;28;20526;-73
2022/12/15 03:48:26;;;;;;;70.00;32.97;;;-2.50;99.90;;;;;;5073358;28;20114;-73
2022/12/15 03:50:51;;;;;;;62.85;32.22;;;-2.50;99.90;;;;;;5074661;28;20354;-73
2022/12/15 03:53:17;;;;;;;66.00;32.97;;;-2.50;99.90;;;;;;5074638;28;20033;-72
2022/12/15 03:55:43;;;;;;;62.80;31.08;;;-2.60;99.90;;;;;;5074512;28;20029;-73
2022/12/15 03:58:08;;;;;;;59.90;31.08;;;-2.80;99.90;;;;;;5074862;28;20028;-73
2022/12/15 04:00:34;;;;;;;61.47;31.15;;;-2.70;99.90;;;;;;5074939;28;20035;-73
2022/12/15 04:03:00;;;;;;;65.10;31.33;;;-2.70;99.90;;;;;;5074691;28;20020;-73
2022/12/15 04:05:29;;;;;;;69.38;33.20;;;-2.60;99.90;;;;;;5074087;28;20009;-73
2022/12/15 04:07:57;;;;;;;66.35;32.58;;;-2.70;99.90;;;;;;5074410;28;20477;-73
2022/12/15 04:10:24;;;;;;;55.45;30.40;;;-2.60;99.90;;;;;;5074520;28;20547;-73
2022/12/15 04:13:02;;;;;;;57.92;31.45;;;-2.90;99.90;;;;;;5074596;28;20039;-73
2022/12/15 04:15:27;;;;;;;64.00;32.08;;;-2.80;99.90;;;;;;5073453;28;20055;-73
2022/12/15 04:17:53;;;;;;;61.20;33.25;;;-2.60;99.90;;;;;;5074558;28;20033;-73
2022/12/15 04:20:19;;;;;;;59.72;31.17;;;-2.80;99.90;;;;;;5072705;28;20032;-73
2022/12/15 04:22:47;;;;;;;60.38;30.80;;;-2.80;99.90;;;;;;5074648;28;20552;-73
2022/12/15 05:31:53;;;;;;;67.90;34.55;;;-3.10;99.90;;;;;;5071325;28;20024;-74
2022/12/15 05:34:25;;;;;;;65.25;34.03;;;-2.90;99.90;;;;;;5073223;28;20021;-73
2022/12/15 05:36:51;;;;;;;65.40;33.40;;;-3.10;99.90;;;;;;5072650;28;20041;-73
2022/12/15 05:39:17;;;;;;;64.47;34.05;;;-3.10;99.90;;;;;;5072915;28;20027;-73
2022/12/15 05:41:43;;;;;;;64.03;34.85;;;-3.00;99.90;;;;;;5071464;28;20024;-74
2022/12/15 05:44:09;;;;;;;70.55;35.88;;;-2.90;99.90;;;;;;5072772;28;20511;-74
2022/12/15 05:46:35;;;;;;;72.53;34.58;;;-2.90;99.90;;;;;;5072777;28;20039;-73
2022/12/15 05:49:10;;;;;;;62.13;33.33;;;-2.80;99.90;;;;;;5071526;28;20028;-73
2022/12/15 05:51:40;;;;;;;65.00;32.95;;;-2.60;99.90;;;;;;5072686;28;20091;-73
2022/12/15 05:54:07;;;;;;;72.00;34.45;;;-2.70;99.90;;;;;;5072596;28;20056;-73
2022/12/15 05:56:34;;;;;;;66.47;31.40;;;-3.00;99.90;;;;;;5072664;28;20108;-73
2022/12/15 05:58:59;;;;;;;65.45;33.53;;;-2.80;99.90;;;;;;5072894;28;20086;-73
2022/12/15 06:01:26;;;;;;;69.43;33.45;;;-2.70;99.90;;;;;;5072274;28;20110;-73
2022/12/15 06:03:52;;;;;;;84.40;36.58;;;-2.60;99.90;;;;;;5072444;28;20027;-73
2022/12/15 06:06:19;;;;;;;70.13;36.38;;;-2.80;99.90;;;;;;5072526;28;20357;-73
2022/12/15 06:08:45;;;;;;;69.13;34.10;;;-3.00;99.90;;;;;;5072655;28;20020;-73
2022/12/15 06:11:13;;;;;;;70.63;33.63;;;-3.10;99.90;;;;;;5072614;28;20516;-73
2022/12/15 06:13:39;;;;;;;76.35;35.72;;;-3.20;99.90;;;;;;5072365;28;20086;-73
2022/12/15 06:16:12;;;;;;;64.13;33.08;;;-3.10;99.90;;;;;;5072357;28;20085;-73
2022/12/15 06:18:41;;;;;;;66.07;34.92;;;-3.00;99.90;;;;;;5072234;28;20021;-73
2022/12/15 06:21:11;;;;;;;66.70;34.00;;;-3.10;99.90;;;;;;5071353;28;20146;-73
2022/12/15 06:23:37;;;;;;;64.53;35.60;;;-3.00;99.90;;;;;;5072203;28;20017;-73
2022/12/15 06:26:13;;;;;;;68.35;35.28;;;-2.90;99.90;;;;;;5072837;28;20069;-73
2022/12/15 06:28:39;;;;;;;61.75;31.95;;;-2.80;99.90;;;;;;5086235;28;20036;-73
2022/12/15 06:31:07;;;;;;;62.33;33.58;;;-2.60;99.90;;;;;;5072255;28;20029;-73
2022/12/15 06:33:34;;;;;;;67.60;35.05;;;-2.50;99.90;;;;;;5072273;28;20060;-73
2022/12/15 06:36:08;;;;;;;69.97;35.13;;;-2.60;99.90;;;;;;5071943;28;20046;-73
2022/12/15 06:38:35;;;;;;;71.55;34.42;;;-2.60;99.90;;;;;;5073539;28;20032;-73
2022/12/15 06:41:03;;;;;;;71.22;34.22;;;-2.60;99.90;;;;;;5076455;28;20105;-73
2022/12/15 06:43:29;;;;;;;66.15;32.20;;;-2.90;99.90;;;;;;5075818;28;20354;-74
2022/12/15 06:45:55;;;;;;;69.53;34.90;;;-3.00;99.90;;;;;;5076099;28;20021;-73
2022/12/15 06:48:22;;;;;;;69.65;36.50;;;-2.80;99.90;;;;;;5074645;28;20089;-73
2022/12/15 06:50:48;;;;;;;73.20;32.60;;;-2.70;99.90;;;;;;5060311;28;20551;-74
2022/12/15 06:53:18;;;;;;;66.15;34.78;;;-2.50;99.90;;;;;;5073746;28;20468;-74
2022/12/15 06:55:45;;;;;;;71.60;34.22;;;-2.50;99.90;;;;;;5074914;28;20040;-74
2022/12/15 06:58:11;;;;;;;61.03;34.33;;;-2.50;99.90;;;;;;5073450;28;20028;-74
2022/12/15 07:00:39;;;;;;;69.22;35.83;;;-2.40;99.90;;;;;;5074924;28;20064;-73
2022/12/15 07:03:16;;;;;;;63.85;32.92;;;-2.30;99.90;;;;;;5074166;28;20028;-74
2022/12/15 07:05:43;;;;;;;63.22;32.92;;;-2.50;99.90;;;;;;5075087;28;20099;-74
2022/12/15 07:08:10;;;;;;;64.43;33.83;;;-2.60;99.90;;;;;;5073637;28;20009;-73
2022/12/15 07:10:43;;;;;;;70.40;33.88;;;-2.60;99.90;;;;;;5073706;28;20222;-73
2022/12/15 07:13:12;;;;;;;67.32;32.67;;;-2.80;99.90;;;;;;5074417;28;20102;-74
2022/12/15 07:15:39;;;;;;;71.70;30.92;;;-2.80;99.90;;;;;;5074261;28;20035;-73
2022/12/15 07:18:09;;;;;;;71.15;31.38;;;-2.90;99.90;;;;;;5067511;28;20033;-73
2022/12/15 07:20:35;;;;;;;67.35;33.92;;;-3.00;99.90;;;;;;5074193;28;20021;-73
2022/12/15 07:23:06;;;;;;;63.50;33.47;;;-2.50;99.90;;;;;;5074718;28;20028;-73
2022/12/15 07:25:35;;;;;;;63.55;33.92;;;-2.50;99.90;;;;;;5072671;28;20503;-73
2022/12/15 07:28:01;;;;;;;61.92;32.50;;;-2.50;99.90;;;;;;5073703;28;20017;-74
2022/12/15 07:30:26;;;;;;;72.22;34.42;;;-2.50;99.90;;;;;;5073666;28;20016;-74
2022/12/15 07:32:52;;;;;;;70.22;34.05;;;-2.30;99.90;;;;;;5074236;28;20024;-73
2022/12/15 07:35:18;;;;;;;68.22;33.13;;;-2.30;99.90;;;;;;5074025;28;20778;-73
2022/12/15 07:37:44;;;;;;;65.05;32.85;;;-2.70;99.90;;;;;;5074129;28;20040;-74
2022/12/15 07:40:10;;;;;;;62.55;32.80;;;-2.70;99.90;;;;;;5074015;28;20452;-74
2022/12/15 07:42:36;;;;;;;69.53;34.33;;;-2.50;99.90;;;;;;5074045;28;20519;-73
2022/12/15 07:45:04;;;;;;;64.85;33.78;;;-2.30;99.90;;;;;;5074230;28;20024;-73
2022/12/15 07:47:30;;;;;;;59.20;32.55;;;-2.50;99.90;;;;;;5072181;28;20035;-73
2022/12/15 07:49:56;;;;;;;60.63;32.50;;;-2.60;99.90;;;;;;5073425;28;20029;-74
2022/12/15 07:52:22;;;;;;;63.72;29.90;;;-2.70;99.90;;;;;;5073531;28;20040;-74
2022/12/15 07:54:48;;;;;;;62.53;31.55;;;-2.70;99.90;;;;;;5073988;28;20028;-74
2022/12/15 07:57:15;;;;;;;66.45;33.50;;;-2.80;99.90;;;;;;5055921;28;20397;-73
2022/12/15 07:59:41;;;;;;;71.20;33.65;;;-2.70;99.90;;;;;;5073597;28;20100;-74
2022/12/15 08:02:09;;;;;;;55.42;30.27;;;-2.60;99.90;;;;;;5072965;28;20469;-73
2022/12/15 08:04:34;;;;;;;65.32;32.00;;;-2.70;99.90;;;;;;5073779;28;20016;-73
2022/12/15 08:07:00;;;;;;;72.88;32.40;;;-2.70;99.90;;;;;;5073679;28;20020;-73
2022/12/15 08:09:26;;;;;;;59.00;34.05;;;-2.60;99.90;;;;;;5073949;28;20099;-73
2022/12/15 08:11:52;;;;;;;60.17;29.92;;;-2.60;99.90;;;;;;5073357;28;20059;-74
2022/12/15 08:14:17;;;;;;;66.50;31.75;;;-2.70;99.90;;;;;;5073746;28;20019;-72
2022/12/15 08:16:44;;;;;;;63.58;33.30;;;-2.40;99.90;;;;;;5071988;28;20040;-72
2022/12/15 08:19:11;;;;;;;60.00;31.63;;;-2.30;99.90;;;;;;5073632;28;20112;-74
2022/12/15 08:21:39;;;;;;;62.97;35.13;;;-2.00;99.90;;;;;;5073323;28;20042;-74
2022/12/15 08:24:07;;;;;;;66.15;33.78;;;-2.10;99.90;;;;;;5059882;28;20033;-73
2022/12/15 08:26:33;;;;;;;71.60;35.33;;;-1.80;99.90;;;;;;5073483;28;20093;-73
2022/12/15 08:29:04;;;;;;;64.95;34.72;;;-2.00;99.90;;;;;;5073535;28;20021;-74
2022/12/15 08:31:32;;;;;;;69.28;36.65;;;-2.00;99.90;;;;;;5073411;28;20064;-73
2022/12/15 08:34:03;;;;;;;65.13;35.13;;;-1.90;99.90;;;;;;5070380;28;20488;-73
2022/12/15 08:36:29;;;;;;;62.70;35.03;;;-1.90;99.90;;;;;;5066455;28;20500;-74
2022/12/15 08:38:56;;;;;;;66.00;35.10;;;-1.80;99.90;;;;;;5073171;28;20096;-74
2022/12/15 08:41:25;;;;;;;69.57;33.38;;;-2.20;99.90;;;;;;5070799;28;20024;-73
2022/12/15 08:43:52;;;;;;;65.22;34.45;;;-2.60;99.90;;;;;;5072443;28;20107;-74
2022/12/15 08:46:21;;;;;;;62.58;32.55;;;-2.80;99.90;;;;;;5073257;28;20028;-73
2022/12/15 08:48:47;;;;;;;63.47;33.03;;;-2.40;99.90;;;;;;5070624;28;20034;-73
2022/12/15 08:51:14;;;;;;;61.22;32.85;;;-2.10;99.90;;;;;;5071937;28;20394;-74
2022/12/15 08:53:40;;;;;;;61.60;31.60;;;-2.10;99.90;;;;;;5072319;28;20052;-74
2022/12/15 08:56:12;;;;;;;60.13;32.20;;;-1.80;99.90;;;;;;5072632;28;20075;-74
2022/12/15 08:58:38;;;;;;;63.10;33.58;;;-1.30;99.90;;;;;;5062706;28;20020;-73
2022/12/15 09:01:25;;;;;;;68.32;35.60;;;-0.80;99.90;;;;;;5072763;28;20024;-73
2022/12/15 09:03:52;;;;;;;69.65;31.98;;;-0.60;99.90;;;;;;5065403;28;20041;-73
2022/12/15 09:06:25;;;;;;;60.15;31.70;;;-0.70;99.90;;;;;;5058085;28;20025;-74
2022/12/15 09:08:56;;;;;;;66.38;33.20;;;-0.90;99.90;;;;;;5063493;28;20032;-74
2022/12/15 09:11:23;;;;;;;61.25;33.25;;;-1.00;99.90;;;;;;5071343;28;20029;-73
2022/12/15 09:13:49;;;;;;;62.17;32.58;;;-0.70;99.90;;;;;;5072116;28;20020;-73
2022/12/15 09:16:17;;;;;;;61.75;33.83;;;-0.40;99.90;;;;;;5072304;28;20043;-74
2022/12/15 09:18:51;;;;;;;57.53;30.95;;;-0.10;99.90;;;;;;5071072;28;20052;-73
2022/12/15 09:21:21;;;;;;;59.00;30.98;;;0.30;99.90;;;;;;5069759;28;20031;-73
2022/12/15 09:23:50;;;;;;;58.65;31.00;;;0.20;99.90;;;;;;5065096;28;20032;-73
2022/12/15 09:26:17;;;;;;;59.63;29.15;;;0.80;99.90;;;;;;5068151;28;20667;-73
2022/12/15 09:28:43;;;;;;;60.28;30.98;;;0.80;99.90;;;;;;5070372;28;20017;-73
2022/12/15 09:31:15;;;;;;;63.65;33.17;;;0.60;99.90;;;;;;5071048;28;20048;-73
2022/12/15 09:33:41;;;;;;;;;;;0.10;99.90;;;;;;5072556;28;20033;-73
2022/12/15 09:36:09;;;;;;;63.47;29.83;;;0.20;99.90;;;;;;5067187;28;20272;-73
2022/12/15 09:38:37;;;;;;;61.08;32.17;;;0.40;99.90;;;;;;5071637;28;20023;-73
2022/12/15 09:41:20;;;;;;;67.85;31.95;;;0.90;99.90;;;;;;5066219;28;20060;-72
2022/12/15 09:43:54;;;;;;;62.05;34.03;;;0.60;99.90;;;;;;5071875;28;20030;-73
2022/12/15 09:46:23;;;;;;;59.00;31.13;;;0.40;99.90;;;;;;5070724;28;20025;-75
2022/12/15 09:48:51;;;;;;;65.32;31.00;;;0.50;99.90;;;;;;5072796;28;20047;-74
2022/12/15 09:51:18;;;;;;;59.67;31.75;;;0.30;99.90;;;;;;5066896;28;20031;-75
2022/12/15 09:53:45;;;;;;;58.33;31.60;;;0.50;99.90;;;;;;5070593;28;20117;-75
2022/12/15 09:56:20;;;;;;;58.38;31.17;;;0.50;99.90;;;;;;5071461;28;20082;-73
2022/12/15 09:59:02;;;;;;;57.05;30.33;;;0.30;99.90;;;;;;5069490;28;20123;-73
2022/12/15 10:01:47;;;;;;;66.43;31.65;;;0.80;99.90;;;;;;5071375;28;20021;-73
2022/12/15 10:04:54;;;;;;;57.30;29.92;;;0.70;99.90;;;;;;5071893;28;20039;-73
2022/12/15 10:07:31;;;;;;;51.78;30.70;;;1.10;99.90;;;;;;5068281;28;20021;-73
2022/12/15 10:09:57;;;;;;;51.05;30.13;;;1.60;99.90;;;;;;5071449;28;20492;-73
2022/12/15 10:12:29;;;;;;;56.30;29.58;;;1.50;99.90;;;;;;5071742;28;20017;-73
2022/12/15 10:15:20;;;;;;;58.17;28.60;;;1.60;99.90;;;;;;5064427;28;20028;-73
2022/12/15 10:18:09;;;;;;;58.03;30.23;;;2.20;99.90;;;;;;5062305;28;20508;-73
2022/12/15 10:20:35;;;;;;;55.38;28.00;;;3.00;99.90;;;;;;5071675;28;20084;-73
2022/12/15 10:23:11;;;;;;;55.80;29.45;;;2.90;99.90;;;;;;5080503;28;20571;-73
2022/12/15 10:25:37;;;;;;;50.83;26.00;;;3.50;99.90;;;;;;5070179;28;20031;-76
2022/12/15 10:28:15;;;;;;;60.53;28.17;;;2.80;99.90;;;;;;5069973;28;20087;-72
2022/12/15 10:31:01;;;;;;;55.03;26.67;;;2.50;99.90;;;;;;5073752;28;20090;-74
2022/12/15 10:33:40;;;;;;;56.47;28.38;;;2.30;99.90;;;;;;5070434;28;20516;-73
2022/12/15 10:36:15;;;;;;;48.78;27.10;;;2.80;99.90;;;;;;5069176;28;20512;-73
2022/12/15 10:38:46;;;;;;;51.72;26.98;;;3.30;99.90;;;;;;5086028;28;20028;-74
2022/12/15 10:41:18;;;;;;;49.45;26.95;;;3.60;99.90;;;;;;5068892;28;20078;-73
2022/12/15 10:43:46;;;;;;;48.45;25.73;;;3.50;99.90;;;;;;5069980;28;20029;-74
2022/12/15 10:46:25;;;;;;;49.45;25.30;;;4.10;99.90;;;;;;5051345;28;20036;-74
2022/12/15 10:48:59;;;;;;;53.97;27.58;;;3.80;99.90;;;;;;5069627;28;20028;-73
2022/12/15 10:51:31;;;;;;;47.20;25.48;;;3.90;99.90;;;;;;5070826;28;20075;-73
2022/12/15 10:54:09;;;;;;;44.95;25.15;;;3.50;99.90;;;;;;5065159;28;20017;-73
2022/12/15 10:56:46;;;;;;;49.22;26.08;;;4.20;99.90;;;;;;5083335;28;20090;-74
2022/12/15 10:59:27;;;;;;;48.38;26.42;;;4.80;99.90;;;;;;5073662;28;20036;-73
2022/12/15 11:01:53;;;;;;;46.67;25.88;;;4.50;99.90;;;;;;5071394;28;20516;-73
2022/12/15 11:04:39;;;;;;;41.72;26.20;;;4.50;99.90;;;;;;5069255;28;20100;-73
2022/12/15 11:07:13;;;;;;;50.90;26.88;;;4.40;99.90;;;;;;5069734;28;20028;-73
2022/12/15 11:09:39;;;;;;;47.72;26.20;;;4.90;99.90;;;;;;5071257;28;20028;-73
2022/12/15 11:15:21;;;;;;;48.65;25.23;;;3.80;99.90;;;;;;5067398;28;20062;-73
2022/12/15 11:17:58;;;;;;;48.20;26.30;;;4.00;99.90;;;;;;5070564;28;20570;-73
2022/12/15 11:20:33;;;;;;;58.53;25.80;;;5.00;99.90;;;;;;5070933;28;20013;-73
2022/12/15 11:23:10;;;;;;;44.72;26.40;;;5.10;99.90;;;;;;5062205;28;20040;-73
2022/12/15 11:25:45;;;;;;;44.72;25.98;;;5.20;99.90;;;;;;5073104;28;20473;-73
2022/12/15 11:28:17;;;;;;;46.78;25.92;;;5.60;99.90;;;;;;5073240;28;20107;-73
2022/12/15 11:31:21;;;;;;;;;;;7.10;99.90;;;;;;5080932;28;20423;-73
2022/12/15 11:33:47;;;;;;;45.67;25.58;;;7.70;99.70;;;;;;5026852;28;19963;-74
2022/12/15 11:36:19;;;;;;;53.17;25.75;;;7.90;99.20;;;;;;5013293;28;20131;-73
2022/12/15 11:38:45;;;;;;;46.55;25.77;;;6.90;99.90;;;;;;5054067;28;20078;-73
2022/12/15 11:41:58;;;;;;;44.33;26.67;;;8.00;99.30;;;;;;5075080;28;20090;-73
2022/12/15 11:44:41;;;;;;;42.60;25.67;;;8.20;98.20;;;;;;5013113;28;20036;-73
2022/12/15 11:47:11;;;;;;;43.65;26.58;;;8.80;98.20;;;;;;4993645;28;20085;-72
2022/12/15 11:50:00;;;;;;;45.33;27.48;;;6.70;99.90;;;;;;5046528;28;20048;-75
2022/12/15 11:52:53;;;;;;;41.90;25.05;;;5.50;99.90;;;;;;5069247;28;20082;-75
2022/12/15 11:55:34;;;;;;;43.30;25.00;;;6.30;99.90;;;;;;5073086;28;20030;-75
2022/12/15 11:58:51;;;;;;;41.57;24.20;;;6.20;99.90;;;;;;5074658;28;20028;-75
2022/12/15 12:01:41;;;;;;;45.72;25.10;;;6.30;99.90;;;;;;5012919;28;20025;-75
2022/12/15 12:04:21;;;;;;;42.38;24.23;;;6.70;99.90;;;;;;5017135;28;20040;-75
2022/12/15 12:06:59;;;;;;;45.90;24.35;;;6.70;99.90;;;;;;5056909;28;20037;-75
2022/12/15 12:09:37;;;;;;;42.10;24.92;;;6.60;99.90;;;;;;5066133;28;20497;-75
2022/12/15 12:12:25;;;;;;;45.33;26.27;;;7.40;99.90;;;;;;5073354;28;20085;-75
2022/12/15 12:15:11;;;;;;;46.25;24.75;;;6.90;99.90;;;;;;5074252;28;20431;-75
2022/12/15 12:17:52;;;;;;;41.83;26.30;;;6.40;99.90;;;;;;5074228;28;20068;-75
2022/12/15 12:20:23;;;;;;;47.05;26.08;;;8.60;99.90;;;;;;5074225;28;20028;-75
2022/12/15 12:23:01;;;;;;;40.92;23.58;;;10.30;97.80;;;;;;5074305;28;20024;-76
2022/12/15 12:25:29;;;;;;;37.78;20.65;;;10.40;96.50;;;;;;5072860;28;20035;-75
2022/12/15 12:28:00;;;;;;;36.78;22.13;;;10.60;95.80;;;;;;5074449;28;20025;-75
2022/12/15 12:30:33;;;;;;;32.33;21.90;;;8.70;98.70;;;;;;5072980;28;20477;-75
2022/12/15 12:33:24;;;;;;;35.00;22.30;;;9.10;98.20;;;;;;5073805;28;20040;-76
2022/12/15 12:36:03;;;;;;;42.85;22.63;;;8.10;99.90;;;;;;5073471;28;20095;-75
2022/12/15 12:38:39;;;;;;;35.47;21.83;;;10.20;98.60;;;;;;5072678;28;20036;-75
2022/12/15 12:41:24;;;;;;;38.47;22.10;;;9.20;97.80;;;;;;5074056;28;20017;-76
2022/12/15 12:43:54;;;;;;;39.53;20.92;;;9.10;98.30;;;;;;5073997;28;20039;-76
2022/12/15 12:46:25;;;;;;;40.10;22.45;;;8.50;99.40;;;;;;5073490;28;20358;-75
2022/12/15 12:49:16;;;;;;;34.42;21.60;;;8.60;99.90;;;;;;5073687;28;20045;-76
2022/12/15 12:51:50;;;;;;;35.78;20.05;;;10.20;97.80;;;;;;5073872;28;20460;-76
2022/12/15 12:54:34;;;;;;;32.50;19.45;;;11.20;96.10;;;;;;5073859;28;20033;-76
2022/12/15 12:57:12;;;;;;;35.63;20.27;;;12.60;95.70;;;;;;5073584;28;20079;-75
2022/12/15 12:59:48;;;;;;;33.42;21.08;;;11.20;95.90;;;;;;5072376;28;20033;-75
2022/12/15 13:02:20;;;;;;;30.95;20.15;;;11.00;96.00;;;;;;5072817;28;20028;-75
2022/12/15 13:04:50;;;;;;;34.17;20.67;;;11.10;95.90;;;;;;5073635;28;20293;-75
2022/12/15 13:07:36;;;;;;;40.45;21.75;;;10.60;97.60;;;;;;5072337;28;20028;-76
2022/12/15 13:10:08;;;;;;;31.60;20.58;;;11.90;96.50;;;;;;5072249;28;20036;-75
2022/12/15 13:12:46;;;;;;;;;;;13.90;93.80;;;;;;5080002;28;20028;-73
2022/12/15 13:15:38;;;;;;;35.70;21.38;;;14.80;92.10;;;;;;5075839;28;19954;-76
2022/12/15 13:18:26;;;;;;;38.60;22.05;;;15.20;91.40;;;;;;5073354;28;20076;-76
2022/12/15 13:20:56;;;;;;;34.63;21.98;;;15.30;91.30;;;;;;5073171;28;20066;-76
2022/12/15 13:23:22;;;;;;;32.55;22.08;;;15.50;90.10;;;;;;5073186;28;20029;-75
2022/12/15 13:25:56;;;;;;;33.22;21.55;;;14.70;91.10;;;;;;5073301;28;20444;-75
2022/12/15 13:28:43;;;;;;;33.95;21.85;;;15.10;90.90;;;;;;5069309;28;20029;-75
2022/12/15 13:31:19;;;;;;;34.35;21.40;;;15.30;90.50;;;;;;5069675;28;20032;-75
2022/12/15 13:33:47;;;;;;;32.10;20.77;;;14.20;91.10;;;;;;5074744;28;20033;-75
2022/12/15 13:36:35;;;;;;;32.90;22.30;;;13.90;92.10;;;;;;5073126;28;20050;-76
2022/12/15 13:39:13;;;;;;;34.08;21.08;;;14.30;91.90;;;;;;5072869;28;20024;-75
2022/12/15 13:41:44;;;;;;;34.47;21.73;;;13.90;92.10;;;;;;5071700;28;20032;-76
2022/12/15 13:44:34;;;;;;;36.17;22.05;;;14.90;91.50;;;;;;5072777;28;20494;-75
2022/12/15 13:47:10;;;;;;;39.17;23.35;;;14.80;90.80;;;;;;5071443;28;20048;-75
2022/12/15 13:50:01;;;;;;;45.90;24.40;;;14.90;91.00;;;;;;5070593;28;20033;-75
2022/12/15 13:52:28;;;;;;;33.70;23.23;;;15.20;90.20;;;;;;5072629;28;20025;-75
2022/12/15 13:55:13;;;;;;;35.83;22.45;;;14.00;91.50;;;;;;5072832;28;20397;-75
2022/12/15 13:57:50;;;;;;;36.67;23.27;;;12.20;92.80;;;;;;5072477;28;20032;-75
2022/12/15 14:00:17;;;;;;;37.28;23.33;;;12.60;93.30;;;;;;5072354;28;20496;-75
2022/12/15 14:02:44;;;;;;;35.42;22.65;;;13.80;92.30;;;;;;5066258;28;20021;-75
2022/12/15 14:05:13;;;;;;;33.65;21.75;;;12.70;93.00;;;;;;5062665;28;20033;-76
2022/12/15 14:07:43;;;;;;;38.65;22.60;;;12.10;93.40;;;;;;5072594;28;20469;-75
2022/12/15 14:10:35;;;;;;;35.03;23.08;;;12.70;93.20;;;;;;5072468;28;20028;-75
2022/12/15 14:13:26;;;;;;;45.95;24.13;;;12.70;92.90;;;;;;5035943;28;20071;-75
2022/12/15 14:16:02;;;;;;;46.67;25.00;;;13.70;92.00;;;;;;5060589;28;20036;-75
2022/12/15 14:18:33;;;;;;;43.85;24.15;;;13.70;91.90;;;;;;5072400;28;20385;-75
2022/12/15 14:21:03;;;;;;;41.15;24.40;;;13.60;91.40;;;;;;5071266;28;20028;-74
2022/12/15 14:23:39;;;;;;;50.88;26.35;;;11.80;93.20;;;;;;5072278;28;20377;-75
2022/12/15 14:26:07;;;;;;;48.22;25.63;;;12.20;92.60;;;;;;5072645;28;20025;-75
2022/12/15 14:28:38;;;;;;;50.60;25.85;;;10.50;94.40;;;;;;5071926;28;20033;-75
2022/12/15 14:31:16;;;;;;;40.38;26.38;;;10.30;95.00;;;;;;5072537;28;20455;-75
2022/12/15 14:33:46;;;;;;;44.10;26.05;;;10.20;95.20;;;;;;5072293;28;20043;-75
2022/12/15 14:36:14;;;;;;;46.70;27.50;;;10.30;95.10;;;;;;5072504;28;20435;-74
2022/12/15 14:39:00;;;;;;;46.30;26.40;;;10.20;95.00;;;;;;5071983;28;20033;-75
2022/12/15 14:41:28;;;;;;;55.70;27.27;;;9.30;95.70;;;;;;5071993;28;20044;-75
2022/12/15 14:44:15;;;;;;;48.97;26.27;;;8.80;96.60;;;;;;5070502;28;20132;-75
2022/12/15 14:46:46;;;;;;;46.38;28.08;;;7.70;98.30;;;;;;5072001;28;20469;-74
2022/12/15 14:49:19;;;;;;;46.70;27.55;;;7.80;99.40;;;;;;5071908;28;20056;-75
2022/12/15 14:51:51;;;;;;;43.40;27.08;;;7.00;99.90;;;;;;5072265;28;20485;-74
2022/12/15 14:54:32;;;;;;;43.58;26.08;;;7.00;99.90;;;;;;5072083;28;20016;-75
2022/12/15 14:57:08;;;;;;;48.60;27.67;;;6.90;99.90;;;;;;5071787;28;20041;-75
2022/12/15 14:59:34;;;;;;;55.85;27.52;;;6.90;99.90;;;;;;5072586;28;20020;-74
2022/12/15 15:02:26;;;;;;;47.17;27.42;;;6.60;99.90;;;;;;5075894;28;20112;-75
2022/12/15 15:04:58;;;;;;;52.30;29.08;;;6.10;99.90;;;;;;5075764;28;20469;-75
2022/12/15 15:07:25;;;;;;;54.70;30.10;;;5.70;99.90;;;;;;5075977;28;20082;-76
2022/12/15 15:09:52;;;;;;;46.03;27.98;;;6.00;99.90;;;;;;5075512;28;20036;-75
2022/12/15 15:12:23;;;;;;;53.63;30.90;;;6.40;99.90;;;;;;5075434;28;20012;-76
2022/12/15 15:14:56;;;;;;;59.85;33.58;;;6.60;99.90;;;;;;5073753;28;20055;-75
2022/12/15 15:17:29;;;;;;;60.85;32.97;;;6.50;99.90;;;;;;5062621;28;20468;-75
2022/12/15 15:19:58;;;;;;;65.43;35.22;;;6.40;99.90;;;;;;5075516;28;20086;-75
2022/12/15 15:22:28;;;;;;;59.67;32.50;;;6.20;99.90;;;;;;5075695;28;20036;-75